Boscawen, New Hampshire
Current Conditions -  °F | °C
As of 2:51 AM on Saturday 25 Oct 2014 (Local Time) from KCON Reporting Station
Few Clouds Few Clouds  
Wind Chill: 41°   Ceiling: Unl
Heat Index: 45°   Visibility: 10mi
Dew Point: 37°   Wind: 8mph
Humidity: 74%   Direction: 230°SW
Pressure: 29.74"   Gusts: NA
Location:  43.3208°N, 71.6638°W
Report Text: KCON 250651Z AUTO 23007KT 10SM FEW080 07/03 A2974 RMK AO2 SLP074 T00720028
Loading
Personal Weather Stations






























Interactive Weather Map
Tropical Storm Tracking
New forecast layout! Learn more

10-Day Weather Forecast

Advertisements
Track Severe Weather on mobile